Terminal Aerodrome Forecast
Issued by NWS

Home | Current Version | Previous Version | Text Only | Print | Product List | Glossary On
Versions: 1 2 3 4 5 6 7 8 9 10 11 12 13 14 15
000
FTUS43 KAPX 181738
TAFTVC
TAF
KTVC 181738Z 1818/1918 01010G20KT P6SM OVC010
     FM182000 01011G20KT P6SM -SHRA OVC020
     FM182300 35014G24KT P6SM -SHRASN OVC020
     FM190600 33012G23KT 6SM -SHSN OVC030
     FM191400 31010G20KT 6SM -SHSN OVC030=

USA.gov is the U.S. government's official web portal to all federal, state and local government web resources and services.